Time;durP1;ratioP1;P1;durP2;ratioP2;P2;SDS_P1;SDS_P2;PMS_P1;PMS_P2;Temp;Humidity;BMP_temperature;BMP_pressure;BME280_temperature;BME280_humidity;BME280_pressure;Samples;Min_cycle;Max_cycle;Signal;HPM_P1;HPM_P2
2022/06/16 00:00:30;;;;;;;5.88;2.25;;;;;;;16.40;68.20;100953.78;5053028;28;20466;-82
2022/06/16 00:02:57;;;;;;;6.35;2.83;;;;;;;16.36;68.26;100950.63;5028017;28;20108;-83
2022/06/16 00:05:26;;;;;;;7.13;2.55;;;;;;;16.34;68.41;100952.66;5033377;28;20534;-81
2022/06/16 00:07:52;;;;;;;4.15;2.28;;;;;;;16.26;68.62;100953.47;5066175;28;20488;-81
2022/06/16 00:10:19;;;;;;;5.60;2.40;;;;;;;16.15;68.90;100941.31;5085775;28;20109;-81
2022/06/16 00:12:45;;;;;;;7.90;2.80;;;;;;;16.05;69.03;100930.00;5063635;28;20032;-81
2022/06/16 00:15:14;;;;;;;6.82;2.75;;;;;;;15.93;69.11;100933.00;5050575;28;20039;-81
2022/06/16 00:17:41;;;;;;;3.40;2.65;;;;;;;15.78;69.61;100924.84;5069913;28;20421;-81
2022/06/16 00:20:08;;;;;;;3.30;2.45;;;;;;;15.59;70.18;100923.34;5086154;28;20101;-81
2022/06/16 00:22:37;;;;;;;5.57;2.80;;;;;;;15.37;70.80;100922.97;5070216;28;20768;-81
2022/06/16 00:25:05;;;;;;;14.05;2.90;;;;;;;15.19;71.47;100921.28;5063453;28;20507;-81
2022/06/16 00:27:31;;;;;;;8.90;3.00;;;;;;;15.06;72.04;100919.09;5071942;28;20035;-81
2022/06/16 00:29:58;;;;;;;3.95;2.50;;;;;;;14.99;72.17;100916.25;5054949;28;20024;-81
2022/06/16 00:32:24;;;;;;;5.90;2.35;;;;;;;14.99;72.33;100913.59;5072272;28;20512;-81
2022/06/16 00:34:50;;;;;;;8.75;3.05;;;;;;;15.08;72.15;100908.28;5058938;28;21530;-81
2022/06/16 00:37:17;;;;;;;4.68;2.90;;;;;;;15.19;71.69;100915.13;5072713;28;20089;-81
2022/06/16 00:39:43;;;;;;;4.80;2.75;;;;;;;15.25;71.52;100914.47;5069070;28;20492;-81
2022/06/16 00:42:27;;;;;;;5.75;3.00;;;;;;;15.30;71.13;100906.00;5049554;28;20036;-81
2022/06/16 00:44:57;;;;;;;4.70;2.90;;;;;;;15.34;71.08;100900.16;5089361;28;20563;-80
2022/06/16 00:47:26;;;;;;;3.78;2.85;;;;;;;15.38;70.97;100912.16;5088709;28;20028;-80
2022/06/16 00:49:55;;;;;;;3.83;2.47;;;;;;;15.38;70.55;100906.81;5067476;28;20052;-82
2022/06/16 00:52:26;;;;;;;4.20;2.08;;;;;;;15.37;70.60;100910.50;5083645;28;20035;-82
2022/06/16 00:55:04;;;;;;;6.10;2.63;;;;;;;15.32;70.70;100904.81;5058355;28;20044;-81
2022/06/16 00:57:40;;;;;;;3.95;2.25;;;;;;;15.34;70.83;100912.66;5087189;28;20029;-81
2022/06/16 01:02:43;;;;;;;6.07;3.38;;;;;;;15.30;70.78;100909.50;5089040;28;20028;-81
2022/06/16 01:05:09;;;;;;;4.38;2.60;;;;;;;15.30;70.83;100900.66;5058680;28;20040;-80
2022/06/16 01:07:40;;;;;;;6.68;2.80;;;;;;;15.30;70.90;100906.84;5064956;28;20024;-81
2022/06/16 01:10:08;;;;;;;5.90;2.50;;;;;;;15.31;70.65;100911.16;5091765;28;20484;-82
2022/06/16 01:15:49;;;;;;;5.17;2.70;;;;;;;15.25;70.95;100904.66;5073981;28;20092;-81
2022/06/16 01:19:03;;;;;;;7.10;2.23;;;;;;;15.24;70.77;100899.50;5088776;28;20115;-81
2022/06/16 01:21:32;;;;;;;6.82;2.67;;;;;;;15.24;70.67;100907.50;5064967;28;20039;-82
2022/06/16 01:24:31;;;;;;;4.70;2.72;;;;;;;15.22;70.59;100905.00;5048035;28;20043;-82
2022/06/16 01:27:24;;;;;;;4.25;2.50;;;;;;;15.20;70.77;100909.63;5067359;28;20028;-81
2022/06/16 01:30:01;;;;;;;8.13;2.63;;;;;;;15.20;70.72;100895.47;5072991;28;20035;-81
2022/06/16 01:32:46;;;;;;;4.18;2.70;;;;;;;15.21;70.73;100897.97;5072775;28;20044;-81
2022/06/16 01:35:15;;;;;;;4.85;3.03;;;;;;;15.15;70.82;100909.28;5063972;28;20032;-82
2022/06/16 01:37:50;;;;;;;4.03;2.30;;;;;;;15.17;70.78;100909.97;5051803;28;20051;-82
2022/06/16 01:40:31;;;;;;;3.78;2.60;;;;;;;15.15;70.82;100901.31;5090159;28;20111;-81
2022/06/16 01:43:15;;;;;;;4.50;2.38;;;;;;;15.09;70.95;100907.28;5078949;28;20039;-81
2022/06/16 01:46:07;;;;;;;7.55;2.90;;;;;;;15.03;71.04;100913.25;5085904;28;20485;-82
2022/06/16 01:48:35;;;;;;;7.70;2.55;;;;;;;15.03;71.22;100918.59;5096442;28;20036;-82
2022/06/16 01:51:30;;;;;;;4.55;2.40;;;;;;;15.03;71.09;100915.91;5041375;28;20071;-81
2022/06/16 01:54:03;;;;;;;3.85;2.40;;;;;;;15.01;71.06;100926.72;5086545;28;20114;-81
2022/06/16 01:56:40;;;;;;;4.22;2.33;;;;;;;15.02;70.81;100917.75;5074118;28;20028;-81
2022/06/16 01:59:11;;;;;;;6.82;2.50;;;;;;;15.00;70.82;100917.91;5057822;28;20089;-80
2022/06/16 02:01:46;;;;;;;3.60;2.20;;;;;;;15.00;70.49;100925.06;5059559;28;20054;-81
2022/06/16 02:04:18;;;;;;;6.82;2.50;;;;;;;14.97;70.63;100934.19;5066453;28;20025;-81
2022/06/16 02:06:48;;;;;;;3.67;2.47;;;;;;;14.97;70.60;100946.69;5073441;28;20032;-81
2022/06/16 02:09:20;;;;;;;6.28;2.60;;;;;;;14.96;70.49;100948.50;5050448;28;20032;-81
2022/06/16 02:11:47;;;;;;;5.13;2.47;;;;;;;14.94;70.42;100945.16;5064725;28;20028;-82
2022/06/16 02:14:38;;;;;;;3.85;2.40;;;;;;;14.90;70.41;100949.16;5070088;28;20025;-82
2022/06/16 02:17:22;;;;;;;3.20;2.38;;;;;;;14.82;70.45;100944.63;5049630;28;20035;-83
2022/06/16 02:19:47;;;;;;;3.60;2.53;;;;;;;14.78;70.36;100950.41;5050964;28;20028;-81
2022/06/16 02:22:13;;;;;;;6.15;2.33;;;;;;;14.72;70.63;100966.00;5059020;28;20116;-81
2022/06/16 02:24:39;;;;;;;7.68;2.90;;;;;;;14.69;70.54;100963.66;5071797;28;20031;-81
2022/06/16 02:27:05;;;;;;;5.63;2.35;;;;;;;14.67;70.37;100962.97;5068394;28;20041;-81
2022/06/16 02:29:37;;;;;;;3.85;2.35;;;;;;;14.65;70.18;100967.66;5083752;28;20036;-81
2022/06/16 02:32:07;;;;;;;7.80;3.20;;;;;;;14.63;70.25;100965.16;5070824;28;20044;-81
2022/06/16 02:34:48;;;;;;;5.32;2.58;;;;;;;14.56;70.33;100968.56;5057358;28;20037;-82
2022/06/16 02:37:45;;;;;;;3.28;2.83;;;;;;;14.42;70.74;100957.53;5069167;28;20147;-82
2022/06/16 02:40:25;;;;;;;8.98;4.50;;;;;;;14.30;70.98;100956.94;5055137;28;20040;-81
2022/06/16 02:43:15;;;;;;;10.98;5.07;;;;;;;14.24;70.98;100961.09;5040581;28;20021;-81
2022/06/16 02:45:58;;;;;;;8.48;4.13;;;;;;;14.17;70.93;100973.34;5053571;28;20040;-81
2022/06/16 02:48:34;;;;;;;8.10;3.90;;;;;;;14.01;71.29;100968.72;5062990;28;20032;-81
2022/06/16 02:51:19;;;;;;;6.63;3.20;;;;;;;13.89;71.86;100970.78;5044534;28;20109;-81
2022/06/16 02:56:51;;;;;;;6.30;2.42;;;;;;;13.67;72.87;100956.97;5050420;28;20040;-81
2022/06/16 02:59:23;;;;;;;5.65;2.45;;;;;;;13.58;72.85;100961.41;5068834;28;20024;-81
2022/06/16 03:01:51;;;;;;;3.78;2.03;;;;;;;13.55;73.03;100966.16;5070206;28;20036;-81
2022/06/16 03:04:19;;;;;;;3.35;2.25;;;;;;;13.55;73.47;100977.63;5061223;28;20024;-81
2022/06/16 03:06:46;;;;;;;6.28;2.28;;;;;;;13.61;73.22;100984.16;5078363;28;20044;-81
2022/06/16 03:09:13;;;;;;;4.20;2.47;;;;;;;13.63;73.27;100979.53;5070518;28;20028;-81
2022/06/16 03:11:40;;;;;;;8.73;2.92;;;;;;;13.67;72.96;100980.88;5037370;28;20489;-81
2022/06/16 03:14:10;;;;;;;4.63;2.40;;;;;;;13.72;72.84;100985.75;5069797;28;20038;-81
2022/06/16 03:16:43;;;;;;;3.38;2.20;;;;;;;13.73;72.48;100977.63;5086972;28;20059;-81
2022/06/16 03:19:09;;;;;;;7.78;3.17;;;;;;;13.73;72.29;100974.97;5052954;28;20036;-81
2022/06/16 03:21:38;;;;;;;5.30;2.50;;;;;;;13.71;72.48;100963.66;5047647;28;20389;-82
2022/06/16 03:24:04;;;;;;;6.53;2.47;;;;;;;13.67;72.63;100946.34;5084987;28;20024;-82
2022/06/16 03:26:30;;;;;;;5.57;2.72;;;;;;;13.58;72.70;100948.13;5086012;28;20029;-81
2022/06/16 03:28:59;;;;;;;8.88;2.88;;;;;;;13.47;72.95;100948.31;5052837;28;20107;-81
2022/06/16 03:31:26;;;;;;;6.30;2.95;;;;;;;13.40;73.30;100943.59;5052963;28;20041;-81
2022/06/16 03:33:55;;;;;;;3.60;2.47;;;;;;;13.40;73.49;100946.25;5066929;28;20035;-81
2022/06/16 03:36:24;;;;;;;6.22;2.63;;;;;;;13.42;73.43;100932.81;5068919;28;20036;-81
2022/06/16 03:38:50;;;;;;;6.03;2.42;;;;;;;13.43;73.36;100937.13;5034135;28;20032;-81
2022/06/16 03:41:17;;;;;;;4.00;2.28;;;;;;;13.48;73.50;100934.03;5068690;28;20032;-81
2022/06/16 03:43:43;;;;;;;9.35;2.53;;;;;;;13.47;73.26;100933.19;5050273;28;20036;-81
2022/06/16 03:46:18;;;;;;;;;;;;;;;13.34;74.00;100938.03;5066654;28;20043;-81
2022/06/16 03:48:54;;;;;;;5.05;2.72;;;;;;;13.45;73.60;100935.19;5047595;28;19947;-81
2022/06/16 03:51:29;;;;;;;4.78;2.83;;;;;;;13.50;73.29;100938.25;5067234;28;20036;-80
2022/06/16 03:53:55;;;;;;;3.30;2.47;;;;;;;13.50;73.51;100946.22;5069870;28;20044;-81
2022/06/16 03:56:22;;;;;;;6.63;2.60;;;;;;;13.51;73.58;100947.88;5028414;28;20473;-81
2022/06/16 03:58:54;;;;;;;7.47;3.78;;;;;;;13.51;73.63;100955.00;5067355;28;20024;-80
2022/06/16 04:01:20;;;;;;;3.08;2.45;;;;;;;13.49;73.72;100956.97;5070994;28;20067;-81
2022/06/16 04:04:01;;;;;;;4.53;2.60;;;;;;;13.50;74.08;100954.19;5052659;28;20392;-81
2022/06/16 04:06:40;;;;;;;10.05;2.67;;;;;;;13.50;74.13;100964.81;5050663;28;20178;-81
2022/06/16 04:09:08;;;;;;;5.43;3.17;;;;;;;13.54;74.05;100969.81;5075317;28;20089;-81
2022/06/16 04:11:35;;;;;;;7.43;2.47;;;;;;;13.58;74.00;100971.19;5058613;28;20506;-81
2022/06/16 04:14:09;;;;;;;5.45;2.30;;;;;;;13.59;73.71;100967.53;5072937;28;20167;-80
2022/06/16 04:16:49;;;;;;;7.82;2.75;;;;;;;13.58;73.99;100971.19;5074426;28;20055;-81
2022/06/16 04:19:21;;;;;;;5.28;2.35;;;;;;;13.59;73.95;100978.16;5070808;28;20040;-80
2022/06/16 04:21:49;;;;;;;5.95;2.10;;;;;;;13.61;73.71;100970.88;5055036;28;20040;-81
2022/06/16 04:24:23;;;;;;;4.75;2.25;;;;;;;13.60;73.43;100983.31;5071704;28;20025;-81
2022/06/16 04:26:51;;;;;;;3.13;2.25;;;;;;;13.58;73.78;100977.34;5054079;28;20040;-81
2022/06/16 04:29:18;;;;;;;4.32;2.40;;;;;;;13.60;73.76;100974.53;5072291;28;20480;-81
2022/06/16 04:31:46;;;;;;;4.07;2.25;;;;;;;13.59;73.74;100970.19;5087449;28;20048;-81
2022/06/16 04:34:13;;;;;;;7.78;2.55;;;;;;;13.62;73.87;100968.06;5040233;28;20025;-81
2022/06/16 04:36:40;;;;;;;5.35;2.55;;;;;;;13.68;73.80;100968.44;5069510;28;20123;-81
2022/06/16 04:39:11;;;;;;;5.00;2.65;;;;;;;13.70;73.56;100963.81;5088437;28;20033;-81
2022/06/16 04:41:41;;;;;;;6.78;2.63;;;;;;;13.68;73.63;100968.44;5057596;28;20032;-80
2022/06/16 04:44:10;;;;;;;4.10;2.67;;;;;;;13.66;73.54;100971.25;5054564;28;20024;-81
2022/06/16 04:46:37;;;;;;;6.32;2.70;;;;;;;13.66;73.35;100967.75;5064251;28;20064;-81
2022/06/16 04:49:04;;;;;;;3.70;3.40;;;;;;;13.68;73.91;100965.78;5052955;28;20036;-80
2022/06/16 04:51:36;;;;;;;6.78;3.33;;;;;;;13.63;74.07;100967.06;5052885;28;20421;-81
2022/06/16 04:54:02;;;;;;;4.93;2.97;;;;;;;13.64;74.24;100981.19;5072465;28;20041;-81
2022/06/16 04:56:54;;;;;;;8.80;3.83;;;;;;;13.66;74.16;100973.91;5066139;28;20051;-81
2022/06/16 04:59:41;;;;;;;4.03;3.08;;;;;;;13.68;74.54;100976.41;5063874;28;20063;-81
2022/06/16 05:02:10;;;;;;;8.98;3.10;;;;;;;13.74;74.48;100967.84;5073095;28;20035;-81
2022/06/16 05:04:55;;;;;;;5.32;3.30;;;;;;;13.79;74.31;100956.75;5072916;28;20036;-81
2022/06/16 05:07:32;;;;;;;4.10;2.90;;;;;;;13.83;74.20;100948.31;5057009;28;20056;-81
2022/06/16 05:10:05;;;;;;;7.00;3.10;;;;;;;13.86;74.20;100940.03;5072075;28;20058;-81
2022/06/16 05:12:43;;;;;;;4.82;3.05;;;;;;;13.89;74.20;100938.88;5083473;28;20043;-81
2022/06/16 05:15:47;;;;;;;7.07;2.92;;;;;;;13.83;74.52;100937.69;5030979;28;20461;-81
2022/06/16 05:18:27;;;;;;;3.42;3.13;;;;;;;13.77;74.63;100947.13;5031174;28;20047;-81
2022/06/16 05:21:19;;;;;;;6.22;3.10;;;;;;;13.77;75.14;100939.16;5032170;28;20071;-81
2022/06/16 05:24:17;;;;;;;5.97;3.35;;;;;;;13.84;74.87;100946.50;5044783;28;20037;-81
2022/06/16 05:27:03;;;;;;;5.28;3.45;;;;;;;13.87;75.11;100954.97;5070542;28;20035;-81
2022/06/16 05:29:49;;;;;;;3.85;2.85;;;;;;;13.83;75.00;100950.97;5070699;28;20484;-81
2022/06/16 05:32:45;;;;;;;8.05;3.70;;;;;;;13.79;75.51;100952.28;5067921;28;20123;-81
2022/06/16 05:35:28;;;;;;;5.55;3.33;;;;;;;13.70;76.00;100947.88;5072692;28;20060;-81
2022/06/16 05:38:14;;;;;;;3.90;3.50;;;;;;;13.57;76.54;100942.97;5046850;28;20044;-81
2022/06/16 05:41:03;;;;;;;7.55;3.70;;;;;;;13.52;76.84;100951.38;5055634;28;20050;-81
2022/06/16 05:43:46;;;;;;;11.77;3.60;;;;;;;13.55;77.32;100945.75;5056006;28;20047;-81
2022/06/16 05:46:30;;;;;;;3.92;3.53;;;;;;;13.60;76.88;100930.19;5066337;28;20029;-81
2022/06/16 05:49:00;;;;;;;5.22;3.72;;;;;;;13.64;77.02;100918.28;5061597;28;20506;-81
2022/06/16 05:51:27;;;;;;;9.65;4.65;;;;;;;13.66;77.23;100914.63;5074114;28;20041;-81
2022/06/16 05:54:03;;;;;;;5.93;4.20;;;;;;;13.72;77.22;100916.69;5065736;28;20052;-81
2022/06/16 05:56:32;;;;;;;6.70;4.00;;;;;;;13.79;76.98;100911.59;5042982;28;20155;-81
2022/06/16 05:58:59;;;;;;;7.40;4.00;;;;;;;13.86;77.01;100920.59;5038153;28;20040;-81
2022/06/16 06:01:26;;;;;;;5.45;3.80;;;;;;;13.95;76.85;100918.84;5072501;28;20036;-81
2022/06/16 06:04:06;;;;;;;6.93;3.67;;;;;;;14.04;76.76;100923.22;5072001;28;20040;-81
2022/06/16 06:06:34;;;;;;;8.68;4.35;;;;;;;14.13;76.58;100918.78;5053594;28;20532;-81
2022/06/16 06:17:20;;;;;;;8.25;4.00;;;;;;;14.30;76.68;100922.38;5070642;28;20036;-81
2022/06/16 06:19:49;;;;;;;5.97;3.55;;;;;;;14.38;76.66;100918.97;5070802;28;20028;-81
2022/06/16 06:22:19;;;;;;;4.38;3.63;;;;;;;14.48;76.29;100918.81;5066463;28;20044;-81
2022/06/16 06:24:54;;;;;;;4.82;3.42;;;;;;;14.54;76.12;100917.38;5052697;28;20032;-81
2022/06/16 06:27:42;;;;;;;5.15;3.83;;;;;;;14.58;75.95;100918.72;5055395;28;20067;-81
2022/06/16 06:30:20;;;;;;;11.45;4.60;;;;;;;14.66;75.67;100918.75;5062289;28;20055;-80
2022/06/16 06:32:47;;;;;;;3.75;3.30;;;;;;;14.72;75.82;100910.13;5071102;28;20040;-81
2022/06/16 06:35:15;;;;;;;6.47;3.53;;;;;;;14.73;75.93;100901.16;5063900;28;20037;-81
2022/06/16 06:37:42;;;;;;;5.07;3.28;;;;;;;14.76;76.07;100898.16;5060194;28;20032;-81
2022/06/16 06:40:17;;;;;;;5.28;3.55;;;;;;;14.85;75.97;100901.72;5071725;28;20032;-81
2022/06/16 06:42:43;;;;;;;4.70;2.72;;;;;;;14.92;75.61;100898.44;5063496;28;20040;-81
2022/06/16 06:45:10;;;;;;;5.65;3.85;;;;;;;14.99;75.61;100884.31;5055363;28;20033;-82
2022/06/16 06:47:36;;;;;;;4.32;3.90;;;;;;;15.05;75.43;100877.47;5045238;28;20036;-82
2022/06/16 06:50:03;;;;;;;7.13;3.40;;;;;;;15.08;75.45;100865.69;5055281;28;20032;-81
2022/06/16 06:52:29;;;;;;;4.05;3.33;;;;;;;15.13;75.51;100866.00;5053953;28;20048;-81
2022/06/16 06:54:54;;;;;;;6.45;3.22;;;;;;;15.22;75.27;100872.19;5072151;28;20046;-81
2022/06/16 06:57:23;;;;;;;4.47;3.20;;;;;;;15.31;74.75;100870.34;5064283;28;20040;-81
2022/06/16 06:59:50;;;;;;;6.13;3.10;;;;;;;15.41;74.65;100867.53;5066555;28;20087;-81
2022/06/16 07:02:16;;;;;;;4.80;3.08;;;;;;;15.48;74.51;100884.53;5071751;28;20049;-81
2022/06/16 07:04:42;;;;;;;6.43;3.10;;;;;;;15.52;74.55;100891.19;5069262;28;20031;-81
2022/06/16 07:07:12;;;;;;;5.60;2.88;;;;;;;15.58;74.23;100895.00;5067719;28;20032;-81
2022/06/16 07:09:38;;;;;;;4.43;3.00;;;;;;;15.61;74.29;100884.03;5055611;28;20028;-81
2022/06/16 07:12:13;;;;;;;4.45;2.83;;;;;;;15.64;74.24;100878.34;5060188;28;20040;-81
2022/06/16 07:14:42;;;;;;;9.60;2.95;;;;;;;15.66;74.21;100871.03;5071992;28;20112;-81
2022/06/16 07:17:08;;;;;;;7.47;2.80;;;;;;;15.73;74.14;100873.88;5044489;28;20167;-81
2022/06/16 07:19:35;;;;;;;6.03;2.55;;;;;;;15.79;74.04;100883.00;5070523;28;20040;-83
2022/06/16 07:22:03;;;;;;;7.82;2.65;;;;;;;15.87;74.12;100891.84;5053162;28;20037;-83
2022/06/16 07:24:29;;;;;;;8.75;2.90;;;;;;;15.93;73.84;100882.34;5051927;28;20038;-82
2022/06/16 07:26:55;;;;;;;10.48;2.78;;;;;;;15.94;73.65;100881.31;5066070;28;20025;-81
2022/06/16 07:29:20;;;;;;;5.72;2.67;;;;;;;15.97;73.70;100881.00;5084514;28;20032;-81
2022/06/16 07:31:46;;;;;;;6.18;3.15;;;;;;;16.03;73.69;100878.69;5059119;28;20044;-82
2022/06/16 07:34:12;;;;;;;6.10;2.95;;;;;;;16.01;73.94;100878.03;5068636;28;20112;-82
2022/06/16 07:36:38;;;;;;;6.72;2.70;;;;;;;16.05;73.83;100874.03;5070063;28;20037;-81
2022/06/16 07:39:05;;;;;;;12.23;2.80;;;;;;;16.09;74.13;100870.84;5066608;28;20078;-81
2022/06/16 07:41:31;;;;;;;7.05;3.38;;;;;;;16.15;73.77;100893.31;5068948;28;20078;-82
2022/06/16 07:43:57;;;;;;;7.97;3.22;;;;;;;16.19;73.64;100889.31;5069122;28;20376;-81
2022/06/16 07:46:24;;;;;;;11.32;2.67;;;;;;;16.21;73.71;100889.97;5064424;28;20033;-82
2022/06/16 07:48:51;;;;;;;6.43;2.63;;;;;;;16.28;73.73;100905.28;5062292;28;20085;-82
2022/06/16 07:51:20;;;;;;;6.03;2.75;;;;;;;16.27;73.56;100911.63;5069178;28;20142;-82
2022/06/16 07:53:48;;;;;;;4.72;2.75;;;;;;;16.23;73.45;100911.97;5074559;28;20029;-81
2022/06/16 07:56:14;;;;;;;6.15;3.22;;;;;;;16.25;73.49;100919.81;5059924;28;20041;-81
2022/06/16 07:58:41;;;;;;;4.28;3.17;;;;;;;16.24;73.34;100929.63;5047897;28;20032;-82
2022/06/16 08:01:07;;;;;;;5.15;3.10;;;;;;;16.22;73.47;100936.16;5054024;28;20045;-81
2022/06/16 08:03:36;;;;;;;7.70;3.17;;;;;;;16.25;73.43;100930.47;5067940;28;20035;-82
2022/06/16 08:06:07;;;;;;;6.07;3.15;;;;;;;16.27;73.67;100933.81;5044231;28;20036;-82
2022/06/16 08:08:34;;;;;;;7.57;2.90;;;;;;;16.32;73.54;100933.31;5063888;28;20411;-81
2022/06/16 08:11:00;;;;;;;5.35;3.30;;;;;;;16.39;73.24;100928.13;5067535;28;20040;-81
2022/06/16 08:13:27;;;;;;;7.60;2.80;;;;;;;16.41;73.07;100923.44;5071038;28;20439;-82
2022/06/16 08:15:53;;;;;;;10.27;3.70;;;;;;;16.53;72.89;100918.56;5068170;28;20530;-82
2022/06/16 08:18:21;;;;;;;5.82;3.13;;;;;;;16.54;73.14;100905.06;5067815;28;20032;-82
2022/06/16 08:20:48;;;;;;;6.22;3.42;;;;;;;16.56;73.04;100908.38;5065113;28;20032;-81
2022/06/16 08:23:14;;;;;;;5.70;3.03;;;;;;;16.63;73.04;100902.34;5069256;28;20036;-81
2022/06/16 08:25:42;;;;;;;8.57;4.80;;;;;;;16.66;72.89;100894.81;5034109;28;20091;-81
2022/06/16 08:28:10;;;;;;;5.55;3.00;;;;;;;16.71;73.07;100899.63;5051284;28;20043;-81
2022/06/16 08:30:37;;;;;;;6.38;2.67;;;;;;;16.72;73.12;100914.66;5070283;28;20028;-81
2022/06/16 08:33:04;;;;;;;4.25;3.13;;;;;;;16.76;72.98;100907.97;5066880;28;20077;-81
2022/06/16 08:35:30;;;;;;;6.82;3.30;;;;;;;16.79;73.16;100901.44;5067045;28;20036;-81
2022/06/16 08:37:55;;;;;;;5.28;3.30;;;;;;;16.78;73.40;100903.28;5068018;28;20036;-81
2022/06/16 08:40:22;;;;;;;6.53;3.20;;;;;;;16.86;73.58;100899.75;5070374;28;20089;-82
2022/06/16 08:42:58;;;;;;;10.07;3.67;;;;;;;16.94;73.42;100902.38;5065382;28;20037;-83
2022/06/16 08:45:35;;;;;;;5.38;3.20;;;;;;;16.94;73.29;100893.53;5062115;28;20148;-81
2022/06/16 08:48:20;;;;;;;11.50;3.55;;;;;;;17.02;73.25;100903.31;5066208;28;20480;-81
2022/06/16 08:50:56;;;;;;;3.95;2.88;;;;;;;17.11;73.30;100900.47;5051856;28;20115;-81
2022/06/16 08:53:51;;;;;;;7.43;3.83;;;;;;;17.19;73.36;100906.75;5087228;28;20036;-81
2022/06/16 08:57:11;;;;;;;6.22;3.55;;;;;;;17.23;73.11;100894.72;5031063;28;20041;-81
2022/06/16 08:59:53;;;;;;;5.78;2.83;;;;;;;17.18;73.50;100887.25;4990275;28;20038;-81
2022/06/16 09:02:26;;;;;;;6.50;2.80;;;;;;;17.27;73.14;100887.16;5032798;28;20094;-81
2022/06/16 09:05:02;;;;;;;7.88;2.42;;;;;;;17.35;72.79;100903.97;5054401;28;20032;-82
2022/06/16 09:07:59;;;;;;;6.00;2.65;;;;;;;17.38;72.36;100913.47;5055074;28;20032;-83
2022/06/16 09:10:28;;;;;;;6.05;1.48;;;;;;;17.44;72.46;100910.09;5088291;28;20058;-81
2022/06/16 09:13:43;;;;;;;3.92;1.67;;;;;;;17.48;71.26;100907.91;5067069;28;20069;-81
2022/06/16 09:16:40;;;;;;;5.43;1.67;;;;;;;17.59;70.83;100906.63;5038075;28;20040;-81
2022/06/16 09:19:40;;;;;;;3.13;1.55;;;;;;;17.68;70.60;100916.25;5069083;28;20044;-81
2022/06/16 09:22:29;;;;;;;5.90;1.60;;;;;;;17.72;69.98;100911.38;5087372;28;20032;-81
2022/06/16 09:25:28;;;;;;;3.80;1.45;;;;;;;17.73;69.53;100915.69;5068326;28;20074;-81
2022/06/16 09:28:19;;;;;;;1.80;0.77;;;;;;;17.77;68.23;100909.00;5071923;28;20489;-82
2022/06/16 09:30:49;;;;;;;0.77;0.50;;;;;;;17.79;67.02;100906.94;5045983;28;20052;-82
2022/06/16 09:33:20;;;;;;;2.83;0.65;;;;;;;17.82;64.42;100917.28;5045881;28;20673;-82
2022/06/16 09:36:00;;;;;;;2.40;0.43;;;;;;;17.82;62.80;100922.63;5035211;28;20484;-81
2022/06/16 09:38:36;;;;;;;2.55;0.65;;;;;;;17.90;61.98;100921.72;5084894;28;20058;-82
2022/06/16 09:42:32;;;;;;;0.88;0.30;;;;;;;18.01;60.29;100923.16;5068584;28;20032;-81
2022/06/16 09:43:57;;;;;;;1.17;0.40;;;;;;;18.08;59.79;100913.38;5067433;28;20039;-81
2022/06/16 09:46:32;;;;;;;2.95;0.80;;;;;;;18.19;59.19;100905.94;5066089;28;20036;-82
2022/06/16 09:49:14;;;;;;;1.05;0.20;;;;;;;18.32;58.31;100922.19;5068229;28;20048;-82
2022/06/16 09:51:48;;;;;;;2.45;0.52;;;;;;;18.39;56.85;100930.31;5065697;28;20036;-82
2022/06/16 09:54:22;;;;;;;1.90;0.73;;;;;;;18.39;56.62;100938.34;5059784;28;20038;-83
2022/06/16 09:57:02;;;;;;;4.40;0.82;;;;;;;18.41;56.67;100922.09;5062380;28;20037;-82
2022/06/16 09:59:50;;;;;;;4.07;0.60;;;;;;;18.51;55.62;100914.63;5054651;28;20033;-82
2022/06/16 10:02:19;;;;;;;1.75;0.45;;;;;;;18.53;56.29;100915.25;5025392;28;20114;-82
2022/06/16 10:04:49;;;;;;;0.95;0.30;;;;;;;18.56;56.18;100924.75;5079948;28;20043;-82
2022/06/16 10:07:37;;;;;;;2.25;0.60;;;;;;;18.59;56.16;100922.56;5062598;28;20038;-81
2022/06/16 10:10:08;;;;;;;2.00;0.32;;;;;;;18.70;55.88;100925.75;5068388;28;20041;-82
2022/06/16 10:12:57;;;;;;;2.47;0.52;;;;;;;18.70;55.52;100937.31;5074357;28;20044;-82
2022/06/16 10:15:35;;;;;;;1.38;0.50;;;;;;;18.80;55.67;100942.38;5063020;28;20092;-81
2022/06/16 10:18:03;;;;;;;2.30;0.55;;;;;;;18.84;55.42;100935.63;5061638;28;20059;-82
2022/06/16 10:20:29;;;;;;;3.13;0.50;;;;;;;18.93;55.46;100935.53;5062738;28;20040;-82
2022/06/16 10:23:24;;;;;;;1.17;0.43;;;;;;;19.15;54.87;100939.09;5070571;28;20048;-82
2022/06/16 10:25:59;;;;;;;4.72;0.30;;;;;;;19.37;54.54;100936.44;5066240;28;20154;-82
2022/06/16 10:28:33;;;;;;;1.97;0.50;;;;;;;19.50;54.45;100921.50;5069180;28;20036;-82
2022/06/16 10:31:02;;;;;;;0.77;0.30;;;;;;;19.63;54.54;100904.69;5071079;28;20047;-84
2022/06/16 10:33:33;;;;;;;1.38;0.55;;;;;;;19.63;54.19;100908.22;5057599;28;20544;-83
2022/06/16 10:36:05;;;;;;;1.60;0.32;;;;;;;19.63;53.81;100897.50;5037855;28;20036;-83
2022/06/16 10:38:35;;;;;;;0.95;0.43;;;;;;;19.70;53.41;100892.19;5094593;28;20115;-83
2022/06/16 10:41:06;;;;;;;0.90;0.32;;;;;;;19.81;52.95;100902.38;5056423;28;20426;-83
2022/06/16 10:43:39;;;;;;;1.60;0.40;;;;;;;19.85;52.47;100905.50;5091867;28;20032;-82
2022/06/16 10:46:19;;;;;;;2.88;0.20;;;;;;;19.94;52.32;100900.81;5089664;28;20031;-82
2022/06/16 10:48:54;;;;;;;1.08;0.30;;;;;;;20.08;51.61;100893.72;5040588;28;20131;-82
2022/06/16 10:51:27;;;;;;;1.48;0.30;;;;;;;20.05;51.37;100876.13;5073791;28;20504;-82
2022/06/16 10:54:12;;;;;;;1.00;0.50;;;;;;;20.07;51.20;100874.09;5065593;28;20046;-83
2022/06/16 10:56:39;;;;;;;1.25;0.40;;;;;;;20.10;51.13;100897.00;5069973;28;20028;-83
2022/06/16 10:59:17;;;;;;;1.00;0.38;;;;;;;19.98;51.38;100901.25;5084613;28;20032;-82
2022/06/16 11:01:47;;;;;;;1.08;0.40;;;;;;;19.95;51.03;100900.63;5059207;28;20043;-82
2022/06/16 11:04:18;;;;;;;0.65;0.30;;;;;;;19.90;51.19;100904.91;5087847;28;20032;-82
2022/06/16 11:06:48;;;;;;;1.60;0.30;;;;;;;20.01;50.75;100925.84;5073090;28;20040;-83
2022/06/16 11:09:20;;;;;;;2.05;0.50;;;;;;;20.17;50.56;100934.63;5065513;28;20020;-82
2022/06/16 11:11:54;;;;;;;0.70;0.22;;;;;;;20.23;50.13;100927.66;5072522;28;20395;-82
2022/06/16 11:14:29;;;;;;;1.10;0.43;;;;;;;20.16;48.75;100917.69;5072267;28;20032;-83
2022/06/16 11:16:56;;;;;;;0.40;0.20;;;;;;;20.03;49.72;100937.25;5083278;28;20036;-82
2022/06/16 11:19:34;;;;;;;3.78;0.25;;;;;;;19.94;49.38;100919.59;5027743;28;20365;-82
2022/06/16 11:22:41;;;;;;;2.75;0.32;;;;;;;20.00;47.52;100908.09;5063041;28;20480;-83
2022/06/16 11:25:28;;;;;;;3.00;0.40;;;;;;;20.20;48.01;100910.94;5003198;28;20092;-82
2022/06/16 11:28:01;;;;;;;0.85;0.22;;;;;;;20.26;47.83;100921.91;5001381;28;20109;-83
2022/06/16 11:30:43;;;;;;;1.10;0.28;;;;;;;20.36;46.85;100924.22;5055258;28;20101;-83
2022/06/16 11:36:39;;;;;;;0.68;0.38;;;;;;;20.72;46.68;100925.03;5080282;28;20036;-82
2022/06/16 11:39:08;;;;;;;0.63;0.20;;;;;;;20.99;46.55;100919.78;5074292;28;20082;-83
2022/06/16 11:41:34;;;;;;;1.90;0.40;;;;;;;21.19;46.64;100915.28;5040825;28;20070;-82
2022/06/16 11:44:26;;;;;;;0.95;0.30;;;;;;;21.27;45.89;100913.41;5052373;28;20040;-83
2022/06/16 11:47:24;;;;;;;1.45;0.30;;;;;;;21.27;46.04;100911.56;5027627;28;20066;-83
2022/06/16 11:50:28;;;;;;;0.40;0.30;;;;;;;21.34;46.64;100908.88;5066046;28;20056;-83
2022/06/16 11:53:24;;;;;;;1.40;0.30;;;;;;;21.51;46.30;100908.47;5066428;28;20068;-82
2022/06/16 11:56:27;;;;;;;1.27;0.60;;;;;;;21.53;47.08;100915.28;5067978;28;20472;-82
2022/06/16 11:59:10;;;;;;;0.80;0.30;;;;;;;21.67;46.95;100918.00;5094896;28;20028;-83
2022/06/16 12:01:43;;;;;;;1.33;0.40;;;;;;;21.83;47.35;100918.63;5075789;28;20024;-84
2022/06/16 12:04:27;;;;;;;1.13;0.43;;;;;;;21.81;47.58;100919.69;5087299;28;20024;-83
2022/06/16 12:07:29;;;;;;;0.98;0.40;;;;;;;21.80;46.91;100912.63;5062116;28;21309;-83
2022/06/16 12:10:01;;;;;;;1.27;0.30;;;;;;;21.81;47.77;100911.63;5083491;28;20085;-83
2022/06/16 12:12:56;;;;;;;1.05;0.47;;;;;;;21.88;47.59;100906.19;5069162;28;20038;-82
2022/06/16 12:15:28;;;;;;;1.10;0.32;;;;;;;22.00;47.69;100900.19;5059962;28;20545;-84
2022/06/16 12:18:37;;;;;;;2.35;0.60;;;;;;;21.99;47.39;100898.53;5069435;28;20423;-82